sensor_id;sensor_type;location;lat;lon;timestamp;pressure;altitude;pressure_sealevel;temperature;humidity
16580;BME280;8402;51.466;6.806;2022-09-02T00:00:40;101430.09;;;20.75;44.57
16580;BME280;8402;51.466;6.806;2022-09-02T00:03:09;101431.97;;;20.71;44.19
16580;BME280;8402;51.466;6.806;2022-09-02T00:05:40;101435.06;;;20.66;44.83
16580;BME280;8402;51.466;6.806;2022-09-02T00:08:08;101428.22;;;20.59;44.33
16580;BME280;8402;51.466;6.806;2022-09-02T00:10:38;101431.56;;;20.49;44.59
16580;BME280;8402;51.466;6.806;2022-09-02T00:13:08;101429.13;;;20.44;44.63
16580;BME280;8402;51.466;6.806;2022-09-02T00:15:37;101422.72;;;20.40;45.06
16580;BME280;8402;51.466;6.806;2022-09-02T00:18:06;101420.69;;;20.37;44.91
16580;BME280;8402;51.466;6.806;2022-09-02T00:20:47;101415.88;;;20.34;45.29
16580;BME280;8402;51.466;6.806;2022-09-02T00:23:15;101421.41;;;20.34;45.33
16580;BME280;8402;51.466;6.806;2022-09-02T00:25:44;101412.28;;;20.30;44.97
16580;BME280;8402;51.466;6.806;2022-09-02T00:28:13;101414.59;;;20.28;45.36
16580;BME280;8402;51.466;6.806;2022-09-02T00:30:43;101416.22;;;20.29;45.45
16580;BME280;8402;51.466;6.806;2022-09-02T00:33:11;101413.88;;;20.31;45.61
16580;BME280;8402;51.466;6.806;2022-09-02T00:35:40;101411.13;;;20.31;45.36
16580;BME280;8402;51.466;6.806;2022-09-02T00:38:11;101410.69;;;20.29;45.68
16580;BME280;8402;51.466;6.806;2022-09-02T00:40:43;101400.47;;;20.29;45.38
16580;BME280;8402;51.466;6.806;2022-09-02T00:43:21;101401.25;;;20.30;45.74
16580;BME280;8402;51.466;6.806;2022-09-02T00:45:50;101404.44;;;20.32;44.99
16580;BME280;8402;51.466;6.806;2022-09-02T00:48:20;101409.94;;;20.32;45.28
16580;BME280;8402;51.466;6.806;2022-09-02T00:50:48;101412.28;;;20.30;45.19
16580;BME280;8402;51.466;6.806;2022-09-02T00:53:18;101410.69;;;20.29;45.42
16580;BME280;8402;51.466;6.806;2022-09-02T00:55:48;101404.31;;;20.25;45.45
16580;BME280;8402;51.466;6.806;2022-09-02T00:58:20;101391.69;;;20.24;45.37
16580;BME280;8402;51.466;6.806;2022-09-02T01:00:52;101398.78;;;20.25;45.47
16580;BME280;8402;51.466;6.806;2022-09-02T01:03:24;101398.78;;;20.25;45.57
16580;BME280;8402;51.466;6.806;2022-09-02T01:05:55;101401.53;;;20.25;45.47
16580;BME280;8402;51.466;6.806;2022-09-02T01:08:31;101398.72;;;20.21;46.16
16580;BME280;8402;51.466;6.806;2022-09-02T01:11:02;101389.66;;;20.21;45.64
16580;BME280;8402;51.466;6.806;2022-09-02T01:13:36;101396.69;;;20.18;45.55
16580;BME280;8402;51.466;6.806;2022-09-02T01:16:11;101393.06;;;20.14;45.80
16580;BME280;8402;51.466;6.806;2022-09-02T01:18:43;101402.44;;;20.10;45.52
16580;BME280;8402;51.466;6.806;2022-09-02T01:21:12;101386.19;;;20.04;46.12
16580;BME280;8402;51.466;6.806;2022-09-02T01:23:42;101395.88;;;19.98;46.12
16580;BME280;8402;51.466;6.806;2022-09-02T01:26:10;101398.13;;;19.93;46.46
16580;BME280;8402;51.466;6.806;2022-09-02T01:28:39;101389.38;;;19.87;46.36
16580;BME280;8402;51.466;6.806;2022-09-02T01:31:08;101388.50;;;19.83;46.01
16580;BME280;8402;51.466;6.806;2022-09-02T01:33:36;101392.41;;;19.82;46.39
16580;BME280;8402;51.466;6.806;2022-09-02T01:36:05;101387.63;;;19.79;46.28
16580;BME280;8402;51.466;6.806;2022-09-02T01:38:33;101388.34;;;19.76;46.38
16580;BME280;8402;51.466;6.806;2022-09-02T01:41:04;101386.31;;;19.73;46.54
16580;BME280;8402;51.466;6.806;2022-09-02T01:43:32;101383.03;;;19.67;46.51
16580;BME280;8402;51.466;6.806;2022-09-02T01:46:00;101388.03;;;19.62;46.77
16580;BME280;8402;51.466;6.806;2022-09-02T01:48:30;101376.59;;;19.60;46.40
16580;BME280;8402;51.466;6.806;2022-09-02T01:51:15;101374.88;;;19.55;47.03
16580;BME280;8402;51.466;6.806;2022-09-02T01:53:44;101379.94;;;19.53;46.94
16580;BME280;8402;51.466;6.806;2022-09-02T01:56:14;101368.94;;;19.53;46.85
16580;BME280;8402;51.466;6.806;2022-09-02T01:58:43;101371.69;;;19.53;46.66
16580;BME280;8402;51.466;6.806;2022-09-02T02:01:11;101366.53;;;19.51;47.06
16580;BME280;8402;51.466;6.806;2022-09-02T02:03:40;101371.16;;;19.47;47.21
16580;BME280;8402;51.466;6.806;2022-09-02T02:06:10;101370.38;;;19.47;47.34
16580;BME280;8402;51.466;6.806;2022-09-02T02:08:38;101374.19;;;19.42;47.00
16580;BME280;8402;51.466;6.806;2022-09-02T02:11:07;101374.91;;;19.39;47.22
16580;BME280;8402;51.466;6.806;2022-09-02T02:13:37;101382.75;;;19.37;47.87
16580;BME280;8402;51.466;6.806;2022-09-02T02:16:06;101377.22;;;19.37;47.41
16580;BME280;8402;51.466;6.806;2022-09-02T02:18:34;101378.03;;;19.38;47.52
16580;BME280;8402;51.466;6.806;2022-09-02T02:21:03;101374.13;;;19.39;47.25
16580;BME280;8402;51.466;6.806;2022-09-02T02:23:32;101376.06;;;19.38;47.22
16580;BME280;8402;51.466;6.806;2022-09-02T02:26:00;101369.41;;;19.39;47.50
16580;BME280;8402;51.466;6.806;2022-09-02T02:28:28;101376.88;;;19.39;47.40
16580;BME280;8402;51.466;6.806;2022-09-02T02:30:58;101376.06;;;19.38;47.73
16580;BME280;8402;51.466;6.806;2022-09-02T02:33:27;101378.81;;;19.38;47.56
16580;BME280;8402;51.466;6.806;2022-09-02T02:36:03;101378.81;;;19.38;47.45
16580;BME280;8402;51.466;6.806;2022-09-02T02:38:32;101374.03;;;19.35;47.46
16580;BME280;8402;51.466;6.806;2022-09-02T02:41:01;101374.81;;;19.36;47.43
16580;BME280;8402;51.466;6.806;2022-09-02T02:43:32;101374.03;;;19.35;47.49
16580;BME280;8402;51.466;6.806;2022-09-02T02:46:03;101376.78;;;19.35;47.80
16580;BME280;8402;51.466;6.806;2022-09-02T02:48:32;101374.03;;;19.35;47.81
16580;BME280;8402;51.466;6.806;2022-09-02T02:51:01;101366.50;;;19.32;47.83
16580;BME280;8402;51.466;6.806;2022-09-02T02:53:30;101376.28;;;19.30;47.75
16580;BME280;8402;51.466;6.806;2022-09-02T02:55:58;101373.44;;;19.26;47.76
16580;BME280;8402;51.466;6.806;2022-09-02T02:58:26;101368.19;;;19.21;47.71
16580;BME280;8402;51.466;6.806;2022-09-02T03:00:55;101373.97;;;19.16;47.49
16580;BME280;8402;51.466;6.806;2022-09-02T03:03:26;101370.34;;;19.12;47.60
16580;BME280;8402;51.466;6.806;2022-09-02T03:05:54;101370.16;;;19.05;48.08
16580;BME280;8402;51.466;6.806;2022-09-02T03:08:23;101366.97;;;19.03;48.29
16580;BME280;8402;51.466;6.806;2022-09-02T03:10:52;101368.94;;;19.02;48.05
16580;BME280;8402;51.466;6.806;2022-09-02T03:13:22;101366.53;;;19.01;48.29
16580;BME280;8402;51.466;6.806;2022-09-02T03:15:52;101365.66;;;18.96;48.28
16580;BME280;8402;51.466;6.806;2022-09-02T03:18:21;101361.31;;;18.95;48.48
16580;BME280;8402;51.466;6.806;2022-09-02T03:20:50;101370.25;;;18.92;48.33
16580;BME280;8402;51.466;6.806;2022-09-02T03:23:19;101368.22;;;18.89;48.21
16580;BME280;8402;51.466;6.806;2022-09-02T03:25:47;101366.53;;;18.85;48.84
16580;BME280;8402;51.466;6.806;2022-09-02T03:28:16;101367.63;;;18.80;48.70
16580;BME280;8402;51.466;6.806;2022-09-02T03:30:45;101365.47;;;18.74;48.69
16580;BME280;8402;51.466;6.806;2022-09-02T03:33:13;101362.19;;;18.68;48.96
16580;BME280;8402;51.466;6.806;2022-09-02T03:35:43;101363.34;;;18.67;48.78
16580;BME280;8402;51.466;6.806;2022-09-02T03:38:13;101357.84;;;18.67;49.27
16580;BME280;8402;51.466;6.806;2022-09-02T03:40:41;101357.38;;;18.65;49.00
16580;BME280;8402;51.466;6.806;2022-09-02T03:43:10;101363.56;;;18.62;49.10
16580;BME280;8402;51.466;6.806;2022-09-02T03:45:39;101359.22;;;18.61;48.99
16580;BME280;8402;51.466;6.806;2022-09-02T03:48:10;101356.47;;;18.61;48.97
16580;BME280;8402;51.466;6.806;2022-09-02T03:50:41;101353.97;;;18.56;49.00
16580;BME280;8402;51.466;6.806;2022-09-02T03:53:09;101357.09;;;18.54;48.74
16580;BME280;8402;51.466;6.806;2022-09-02T03:55:47;101361.00;;;18.53;49.01
16580;BME280;8402;51.466;6.806;2022-09-02T03:58:17;101357.00;;;18.51;48.91
16580;BME280;8402;51.466;6.806;2022-09-02T04:00:49;101355.84;;;18.52;49.31
16580;BME280;8402;51.466;6.806;2022-09-02T04:03:18;101355.84;;;18.52;49.54
16580;BME280;8402;51.466;6.806;2022-09-02T04:05:48;101354.25;;;18.51;49.39
16580;BME280;8402;51.466;6.806;2022-09-02T04:08:17;101350.78;;;18.54;49.32
16580;BME280;8402;51.466;6.806;2022-09-02T04:10:48;101357.09;;;18.54;49.29
16580;BME280;8402;51.466;6.806;2022-09-02T04:13:16;101350.06;;;18.57;49.37
16580;BME280;8402;51.466;6.806;2022-09-02T04:15:45;101351.22;;;18.56;49.06
16580;BME280;8402;51.466;6.806;2022-09-02T04:21:56;101343.00;;;18.56;49.17
16580;BME280;8402;51.466;6.806;2022-09-02T04:24:25;101348.13;;;18.57;48.86
16580;BME280;8402;51.466;6.806;2022-09-02T04:26:55;101344.56;;;18.57;48.99
16580;BME280;8402;51.466;6.806;2022-09-02T04:29:29;101337.50;;;18.56;49.48
16580;BME280;8402;51.466;6.806;2022-09-02T04:31:57;101347.00;;;18.58;49.36
16580;BME280;8402;51.466;6.806;2022-09-02T04:34:26;101345.03;;;18.59;49.65
16580;BME280;8402;51.466;6.806;2022-09-02T04:36:54;101338.41;;;18.60;49.39
16580;BME280;8402;51.466;6.806;2022-09-02T04:39:22;101346.28;;;18.61;49.36
16580;BME280;8402;51.466;6.806;2022-09-02T04:41:51;101332.00;;;18.56;49.44
16580;BME280;8402;51.466;6.806;2022-09-02T04:44:21;101335.91;;;18.55;49.75
16580;BME280;8402;51.466;6.806;2022-09-02T04:46:49;101344.50;;;18.53;49.49
16580;BME280;8402;51.466;6.806;2022-09-02T04:49:18;101340.16;;;18.52;49.30
16580;BME280;8402;51.466;6.806;2022-09-02T04:51:49;101345.19;;;18.50;49.82
16580;BME280;8402;51.466;6.806;2022-09-02T04:54:19;101348.31;;;18.49;49.46
16580;BME280;8402;51.466;6.806;2022-09-02T04:56:47;101347.44;;;18.45;49.51
16580;BME280;8402;51.466;6.806;2022-09-02T04:59:16;101341.03;;;18.40;49.46
16580;BME280;8402;51.466;6.806;2022-09-02T05:01:47;101347.25;;;18.37;49.99
16580;BME280;8402;51.466;6.806;2022-09-02T05:04:16;101343.34;;;18.38;49.82
16580;BME280;8402;51.466;6.806;2022-09-02T05:06:44;101343.69;;;18.37;49.58
16580;BME280;8402;51.466;6.806;2022-09-02T05:09:13;101333.03;;;18.35;49.94
16580;BME280;8402;51.466;6.806;2022-09-02T05:11:41;101340.84;;;18.33;49.55
16580;BME280;8402;51.466;6.806;2022-09-02T05:14:09;101344.38;;;18.34;50.08
16580;BME280;8402;51.466;6.806;2022-09-02T05:16:39;101336.13;;;18.34;49.80
16580;BME280;8402;51.466;6.806;2022-09-02T05:19:10;101345.19;;;18.34;49.91
16580;BME280;8402;51.466;6.806;2022-09-02T05:21:41;101347.13;;;18.34;49.98
16580;BME280;8402;51.466;6.806;2022-09-02T05:24:09;101347.03;;;18.30;50.12
16580;BME280;8402;51.466;6.806;2022-09-02T05:26:38;101347.72;;;18.27;50.31
16580;BME280;8402;51.466;6.806;2022-09-02T05:29:08;101350.03;;;18.25;50.54
16580;BME280;8402;51.466;6.806;2022-09-02T05:31:37;101344.47;;;18.22;51.02
16580;BME280;8402;51.466;6.806;2022-09-02T05:34:07;101343.44;;;18.14;50.89
16580;BME280;8402;51.466;6.806;2022-09-02T05:36:37;101349.75;;;18.14;50.93
16580;BME280;8402;51.466;6.806;2022-09-02T05:39:05;101349.66;;;18.11;50.82
16580;BME280;8402;51.466;6.806;2022-09-02T05:41:34;101348.94;;;18.14;51.09
16580;BME280;8402;51.466;6.806;2022-09-02T05:44:03;101350.19;;;18.17;50.96
16580;BME280;8402;51.466;6.806;2022-09-02T05:46:32;101348.25;;;18.17;50.79
16580;BME280;8402;51.466;6.806;2022-09-02T05:49:01;101352.16;;;18.16;51.30
16580;BME280;8402;51.466;6.806;2022-09-02T05:51:39;101351.25;;;18.12;51.07
16580;BME280;8402;51.466;6.806;2022-09-02T05:54:09;101351.25;;;18.12;51.46
16580;BME280;8402;51.466;6.806;2022-09-02T05:56:39;101350.81;;;18.10;51.44
16580;BME280;8402;51.466;6.806;2022-09-02T05:59:11;101346.47;;;18.09;51.59
16580;BME280;8402;51.466;6.806;2022-09-02T06:01:39;101340.97;;;18.09;51.57
16580;BME280;8402;51.466;6.806;2022-09-02T06:04:08;101345.75;;;18.12;52.07
16580;BME280;8402;51.466;6.806;2022-09-02T06:06:38;101338.84;;;18.18;51.93
16580;BME280;8402;51.466;6.806;2022-09-02T06:09:08;101333.13;;;18.23;51.87
16580;BME280;8402;51.466;6.806;2022-09-02T06:11:38;101335.25;;;18.30;51.68
16580;BME280;8402;51.466;6.806;2022-09-02T06:14:13;101342.91;;;18.36;51.78
16580;BME280;8402;51.466;6.806;2022-09-02T06:16:43;101342.63;;;18.41;51.75
16580;BME280;8402;51.466;6.806;2022-09-02T06:19:12;101339.63;;;18.47;51.40
16580;BME280;8402;51.466;6.806;2022-09-02T06:21:47;101337.78;;;18.51;52.05
16580;BME280;8402;51.466;6.806;2022-09-02T06:24:15;101333.50;;;18.53;51.74
16580;BME280;8402;51.466;6.806;2022-09-02T06:26:44;101332.78;;;18.56;51.68
16580;BME280;8402;51.466;6.806;2022-09-02T06:29:12;101342.38;;;18.62;51.62
16580;BME280;8402;51.466;6.806;2022-09-02T06:31:42;101339.75;;;18.66;51.10
16580;BME280;8402;51.466;6.806;2022-09-02T06:34:12;101350.84;;;18.69;51.64
16580;BME280;8402;51.466;6.806;2022-09-02T06:36:43;101339.47;;;18.71;51.41
16580;BME280;8402;51.466;6.806;2022-09-02T06:39:17;101340.88;;;18.65;51.75
16580;BME280;8402;51.466;6.806;2022-09-02T06:41:46;101344.91;;;18.67;51.98
16580;BME280;8402;51.466;6.806;2022-09-02T06:44:16;101337.88;;;18.70;51.35
16580;BME280;8402;51.466;6.806;2022-09-02T06:46:47;101347.41;;;18.73;51.98
16580;BME280;8402;51.466;6.806;2022-09-02T06:49:23;101335.59;;;18.72;51.90
16580;BME280;8402;51.466;6.806;2022-09-02T06:51:53;101338.06;;;18.77;51.82
16580;BME280;8402;51.466;6.806;2022-09-02T06:54:24;101335.78;;;18.79;51.98
16580;BME280;8402;51.466;6.806;2022-09-02T06:56:52;101336.22;;;18.81;51.90
16580;BME280;8402;51.466;6.806;2022-09-02T06:59:21;101335.84;;;18.83;51.83
16580;BME280;8402;51.466;6.806;2022-09-02T07:01:50;101344.63;;;18.88;51.79
16580;BME280;8402;51.466;6.806;2022-09-02T07:04:18;101332.47;;;18.89;51.32
16580;BME280;8402;51.466;6.806;2022-09-02T07:07:05;101340.00;;;18.92;51.56
16580;BME280;8402;51.466;6.806;2022-09-02T07:09:35;101334.69;;;19.00;51.73
16580;BME280;8402;51.466;6.806;2022-09-02T07:12:04;101332.09;;;19.07;51.54
16580;BME280;8402;51.466;6.806;2022-09-02T07:14:35;101334.38;;;19.20;50.98
16580;BME280;8402;51.466;6.806;2022-09-02T07:17:04;101332.31;;;19.33;51.22
16580;BME280;8402;51.466;6.806;2022-09-02T07:19:33;101323.16;;;19.45;50.92
16580;BME280;8402;51.466;6.806;2022-09-02T07:22:02;101327.88;;;19.64;51.04
16580;BME280;8402;51.466;6.806;2022-09-02T07:24:30;101326.78;;;20.07;50.56
16580;BME280;8402;51.466;6.806;2022-09-02T07:27:00;101314.19;;;20.48;49.65
16580;BME280;8402;51.466;6.806;2022-09-02T07:29:28;101325.34;;;20.55;48.91
16580;BME280;8402;51.466;6.806;2022-09-02T07:31:57;101315.88;;;20.53;49.07
16580;BME280;8402;51.466;6.806;2022-09-02T07:34:25;101323.25;;;20.49;49.37
16580;BME280;8402;51.466;6.806;2022-09-02T07:36:53;101320.50;;;20.49;49.56
16580;BME280;8402;51.466;6.806;2022-09-02T07:39:29;101326.78;;;20.46;49.13
16580;BME280;8402;51.466;6.806;2022-09-02T07:41:57;101320.00;;;20.43;49.10
16580;BME280;8402;51.466;6.806;2022-09-02T07:44:27;101322.91;;;20.50;49.54
16580;BME280;8402;51.466;6.806;2022-09-02T07:46:55;101323.03;;;20.57;49.96
16580;BME280;8402;51.466;6.806;2022-09-02T07:49:24;101316.47;;;20.66;49.87
16580;BME280;8402;51.466;6.806;2022-09-02T07:51:53;101314.63;;;20.73;49.86
16580;BME280;8402;51.466;6.806;2022-09-02T07:54:23;101309.28;;;20.84;50.52
16580;BME280;8402;51.466;6.806;2022-09-02T07:56:52;101308.66;;;20.94;50.20
16580;BME280;8402;51.466;6.806;2022-09-02T07:59:22;101302.50;;;21.04;49.75
16580;BME280;8402;51.466;6.806;2022-09-02T08:01:52;101303.41;;;21.12;49.34
16580;BME280;8402;51.466;6.806;2022-09-02T08:04:21;101308.28;;;21.22;49.24
16580;BME280;8402;51.466;6.806;2022-09-02T08:06:50;101302.94;;;21.33;48.49
16580;BME280;8402;51.466;6.806;2022-09-02T08:09:19;101301.94;;;21.48;48.15
16580;BME280;8402;51.466;6.806;2022-09-02T08:11:49;101299.13;;;21.75;48.13
16580;BME280;8402;51.466;6.806;2022-09-02T08:14:21;101293.41;;;22.28;47.17
16580;BME280;8402;51.466;6.806;2022-09-02T08:16:52;101295.00;;;22.76;46.15
16580;BME280;8402;51.466;6.806;2022-09-02T08:19:22;101298.44;;;23.11;46.40
16580;BME280;8402;51.466;6.806;2022-09-02T08:21:50;101289.88;;;23.30;45.08
16580;BME280;8402;51.466;6.806;2022-09-02T08:24:19;101289.94;;;23.48;45.22
16580;BME280;8402;51.466;6.806;2022-09-02T08:26:47;101294.06;;;23.82;44.35
16580;BME280;8402;51.466;6.806;2022-09-02T08:29:15;101286.19;;;24.06;43.17
16580;BME280;8402;51.466;6.806;2022-09-02T08:31:43;101287.47;;;24.37;43.70
16580;BME280;8402;51.466;6.806;2022-09-02T08:34:15;101287.09;;;24.74;43.36
16580;BME280;8402;51.466;6.806;2022-09-02T08:36:44;101284.69;;;25.05;42.96
16580;BME280;8402;51.466;6.806;2022-09-02T08:39:22;101281.88;;;25.22;42.41
16580;BME280;8402;51.466;6.806;2022-09-02T08:41:55;101278.25;;;25.36;41.41
16580;BME280;8402;51.466;6.806;2022-09-02T08:44:28;101282.13;;;25.57;41.81
16580;BME280;8402;51.466;6.806;2022-09-02T08:46:59;101278.84;;;25.87;41.75
16580;BME280;8402;51.466;6.806;2022-09-02T08:49:34;101281.13;;;26.02;39.50
16580;BME280;8402;51.466;6.806;2022-09-02T08:52:05;101275.88;;;26.15;40.22
16580;BME280;8402;51.466;6.806;2022-09-02T08:54:36;101273.81;;;26.26;39.24
16580;BME280;8402;51.466;6.806;2022-09-02T08:57:09;101280.84;;;26.45;40.11
16580;BME280;8402;51.466;6.806;2022-09-02T08:59:38;101276.38;;;26.58;39.63
16580;BME280;8402;51.466;6.806;2022-09-02T09:02:17;101264.72;;;26.71;39.47
16580;BME280;8402;51.466;6.806;2022-09-02T09:05:09;101256.63;;;26.87;38.71
16580;BME280;8402;51.466;6.806;2022-09-02T09:07:53;101256.38;;;27.12;38.12
16580;BME280;8402;51.466;6.806;2022-09-02T09:10:33;101259.28;;;27.35;39.18
16580;BME280;8402;51.466;6.806;2022-09-02T09:13:15;101251.16;;;27.48;38.61
16580;BME280;8402;51.466;6.806;2022-09-02T09:15:52;101243.81;;;27.61;38.69
16580;BME280;8402;51.466;6.806;2022-09-02T09:18:29;101249.31;;;27.68;37.75
16580;BME280;8402;51.466;6.806;2022-09-02T09:20:59;101254.13;;;27.64;37.63
16580;BME280;8402;51.466;6.806;2022-09-02T09:23:29;101249.13;;;27.83;38.42
16580;BME280;8402;51.466;6.806;2022-09-02T09:26:06;101250.22;;;28.16;37.66
16580;BME280;8402;51.466;6.806;2022-09-02T09:28:39;101235.75;;;28.24;36.67
16580;BME280;8402;51.466;6.806;2022-09-02T09:31:12;101227.28;;;28.32;35.83
16580;BME280;8402;51.466;6.806;2022-09-02T09:33:54;101218.31;;;28.44;36.44
16580;BME280;8402;51.466;6.806;2022-09-02T09:36:50;101223.31;;;28.52;36.70
16580;BME280;8402;51.466;6.806;2022-09-02T09:39:22;101224.34;;;28.62;36.62
16580;BME280;8402;51.466;6.806;2022-09-02T09:41:53;101215.69;;;28.76;36.42
16580;BME280;8402;51.466;6.806;2022-09-02T09:44:42;101212.56;;;28.74;35.60
16580;BME280;8402;51.466;6.806;2022-09-02T09:47:15;101211.13;;;28.66;35.37
16580;BME280;8402;51.466;6.806;2022-09-02T09:49:48;101214.03;;;28.79;36.06
16580;BME280;8402;51.466;6.806;2022-09-02T09:52:26;101199.53;;;28.88;35.56
16580;BME280;8402;51.466;6.806;2022-09-02T09:55:15;101201.84;;;28.93;35.62
16580;BME280;8402;51.466;6.806;2022-09-02T09:57:51;101200.84;;;29.03;35.92
16580;BME280;8402;51.466;6.806;2022-09-02T10:00:27;101204.78;;;29.05;35.15
16580;BME280;8402;51.466;6.806;2022-09-02T10:03:00;101193.56;;;29.09;35.22
16580;BME280;8402;51.466;6.806;2022-09-02T10:05:32;101195.81;;;29.14;35.06
16580;BME280;8402;51.466;6.806;2022-09-02T10:08:04;101193.94;;;29.27;35.95
16580;BME280;8402;51.466;6.806;2022-09-02T10:10:54;101183.72;;;29.21;35.07
16580;BME280;8402;51.466;6.806;2022-09-02T10:13:24;101209.16;;;29.26;35.80
16580;BME280;8402;51.466;6.806;2022-09-02T10:16:12;101191.09;;;29.31;35.11
16580;BME280;8402;51.466;6.806;2022-09-02T10:18:47;101191.56;;;29.66;35.53
16580;BME280;8402;51.466;6.806;2022-09-02T10:21:30;101188.75;;;29.66;33.69
16580;BME280;8402;51.466;6.806;2022-09-02T10:24:13;101187.75;;;29.56;34.21
16580;BME280;8402;51.466;6.806;2022-09-02T10:26:52;101183.09;;;29.49;34.28
16580;BME280;8402;51.466;6.806;2022-09-02T10:29:36;101188.84;;;29.42;34.60
16580;BME280;8402;51.466;6.806;2022-09-02T10:32:25;101186.88;;;29.03;32.90
16580;BME280;8402;51.466;6.806;2022-09-02T10:35:05;101186.59;;;28.97;34.41
16580;BME280;8402;51.466;6.806;2022-09-02T10:37:42;101179.88;;;28.95;34.39
16580;BME280;8402;51.466;6.806;2022-09-02T10:40:16;101181.94;;;28.91;33.55
16580;BME280;8402;51.466;6.806;2022-09-02T10:42:52;101181.50;;;28.72;32.03
16580;BME280;8402;51.466;6.806;2022-09-02T10:45:30;101173.72;;;28.60;33.19
16580;BME280;8402;51.466;6.806;2022-09-02T10:48:12;101179.03;;;28.55;33.92
16580;BME280;8402;51.466;6.806;2022-09-02T10:50:47;101171.72;;;28.61;34.19
16580;BME280;8402;51.466;6.806;2022-09-02T10:53:32;101168.81;;;28.68;34.18
16580;BME280;8402;51.466;6.806;2022-09-02T10:56:07;101169.59;;;28.68;33.84
16580;BME280;8402;51.466;6.806;2022-09-02T10:58:43;101176.69;;;28.73;35.15
16580;BME280;8402;51.466;6.806;2022-09-02T11:01:19;101173.81;;;28.76;34.49
16580;BME280;8402;51.466;6.806;2022-09-02T11:03:59;101173.50;;;28.71;33.25
16580;BME280;8402;51.466;6.806;2022-09-02T11:06:35;101164.59;;;28.79;34.64
16580;BME280;8402;51.466;6.806;2022-09-02T11:09:29;101167.47;;;28.96;34.48
16580;BME280;8402;51.466;6.806;2022-09-02T11:12:06;101165.81;;;28.98;33.64
16580;BME280;8402;51.466;6.806;2022-09-02T11:14:42;101171.34;;;29.02;34.21
16580;BME280;8402;51.466;6.806;2022-09-02T11:17:18;101154.59;;;29.02;34.34
16580;BME280;8402;51.466;6.806;2022-09-02T11:19:51;101165.97;;;28.91;33.50
16580;BME280;8402;51.466;6.806;2022-09-02T11:22:27;101164.44;;;28.87;34.28
16580;BME280;8402;51.466;6.806;2022-09-02T11:25:01;101158.13;;;28.83;34.07
16580;BME280;8402;51.466;6.806;2022-09-02T11:27:35;101149.25;;;28.88;34.01
16580;BME280;8402;51.466;6.806;2022-09-02T11:30:12;101141.75;;;29.04;33.64
16580;BME280;8402;51.466;6.806;2022-09-02T11:32:43;101144.09;;;29.06;31.95
16580;BME280;8402;51.466;6.806;2022-09-02T11:35:18;101146.41;;;28.91;30.69
16580;BME280;8402;51.466;6.806;2022-09-02T11:37:50;101154.63;;;28.78;30.73
16580;BME280;8402;51.466;6.806;2022-09-02T11:40:23;101149.13;;;28.75;30.79
16580;BME280;8402;51.466;6.806;2022-09-02T11:43:13;101139.31;;;28.67;30.00
16580;BME280;8402;51.466;6.806;2022-09-02T11:46:00;101132.06;;;28.69;29.57
16580;BME280;8402;51.466;6.806;2022-09-02T11:52:00;101127.00;;;29.04;29.11
16580;BME280;8402;51.466;6.806;2022-09-02T11:54:34;101122.16;;;29.24;30.16
16580;BME280;8402;51.466;6.806;2022-09-02T11:57:05;101122.03;;;29.48;29.81
16580;BME280;8402;51.466;6.806;2022-09-02T12:00:06;101118.41;;;29.51;28.77
16580;BME280;8402;51.466;6.806;2022-09-02T12:02:40;101115.78;;;29.60;29.48
16580;BME280;8402;51.466;6.806;2022-09-02T12:05:45;101110.69;;;29.55;28.33
16580;BME280;8402;51.466;6.806;2022-09-02T12:08:57;101111.03;;;29.57;27.89
16580;BME280;8402;51.466;6.806;2022-09-02T12:15:01;101100.81;;;29.50;27.46
16580;BME280;8402;51.466;6.806;2022-09-02T12:17:44;101104.56;;;29.44;27.78
16580;BME280;8402;51.466;6.806;2022-09-02T12:26:23;101097.81;;;30.06;27.67
16580;BME280;8402;51.466;6.806;2022-09-02T12:28:53;101087.63;;;30.16;26.87
16580;BME280;8402;51.466;6.806;2022-09-02T12:31:40;101100.38;;;30.17;27.44
16580;BME280;8402;51.466;6.806;2022-09-02T12:37:51;101091.63;;;29.99;27.58
16580;BME280;8402;51.466;6.806;2022-09-02T12:40:29;101080.44;;;29.99;26.79
16580;BME280;8402;51.466;6.806;2022-09-02T12:43:02;101084.13;;;30.12;28.06
16580;BME280;8402;51.466;6.806;2022-09-02T12:45:33;101086.38;;;30.17;27.59
16580;BME280;8402;51.466;6.806;2022-09-02T12:48:11;101084.06;;;30.28;26.89
16580;BME280;8402;51.466;6.806;2022-09-02T12:50:51;101068.66;;;30.36;26.48
16580;BME280;8402;51.466;6.806;2022-09-02T12:53:31;101075.34;;;30.26;26.82
16580;BME280;8402;51.466;6.806;2022-09-02T12:56:02;101073.31;;;30.27;27.05
16580;BME280;8402;51.466;6.806;2022-09-02T12:58:34;101079.81;;;30.24;26.44
16580;BME280;8402;51.466;6.806;2022-09-02T13:01:16;101075.19;;;30.17;26.34
16580;BME280;8402;51.466;6.806;2022-09-02T13:04:02;101067.84;;;30.23;26.07
16580;BME280;8402;51.466;6.806;2022-09-02T13:06:46;101060.50;;;30.13;26.42
16580;BME280;8402;51.466;6.806;2022-09-02T13:09:42;101057.88;;;30.06;27.53
16580;BME280;8402;51.466;6.806;2022-09-02T13:12:47;101059.19;;;30.18;26.54
16580;BME280;8402;51.466;6.806;2022-09-02T13:15:34;101055.84;;;30.52;26.13
16580;BME280;8402;51.466;6.806;2022-09-02T13:18:39;101050.28;;;30.77;26.07
16580;BME280;8402;51.466;6.806;2022-09-02T13:21:32;101048.06;;;30.72;25.51
16580;BME280;8402;51.466;6.806;2022-09-02T13:27:23;101043.47;;;30.78;26.21
16580;BME280;8402;51.466;6.806;2022-09-02T13:30:12;101041.91;;;30.90;26.69
16580;BME280;8402;51.466;6.806;2022-09-02T13:32:42;101038.09;;;30.96;26.81
16580;BME280;8402;51.466;6.806;2022-09-02T13:35:17;101047.84;;;31.05;26.26
16580;BME280;8402;51.466;6.806;2022-09-02T13:37:53;101038.91;;;31.10;26.19
16580;BME280;8402;51.466;6.806;2022-09-02T13:40:27;101034.63;;;31.18;25.59
16580;BME280;8402;51.466;6.806;2022-09-02T13:42:58;101027.69;;;31.10;25.15
16580;BME280;8402;51.466;6.806;2022-09-02T13:45:29;101038.56;;;31.08;25.59
16580;BME280;8402;51.466;6.806;2022-09-02T13:48:00;101032.75;;;31.15;25.38
16580;BME280;8402;51.466;6.806;2022-09-02T13:50:30;101032.38;;;31.13;25.70
16580;BME280;8402;51.466;6.806;2022-09-02T13:53:00;101028.56;;;31.07;25.35